KASX/ASX METAR and TAF weather

Enter ICAO airport designator
Station Type Date Time Source
KASX METAR 2018/12/18 10:53 UTC NOAA

KASX 181053Z AUTO 00000KT 10SM CLR M11/M12 A3004 RMK AO2 SLP189 T11061117


Station Type Date Time Source
KASX Decoded METAR 2018/12/18 10:53 UTC NOAA

ASHLAND KENNEDY MEMORIAL, WI, United States (KASX) 46-33N 090-55W 251M
Dec 18, 2018 - 05:53 AM EST / 2018.12.18 1053 UTC
Wind: Calm:0
Visibility: 10 mile(s):0
Sky conditions: clear
Temperature: 12.9 F (-10.6 C)
Dew Point: 10.9 F (-11.7 C)
Relative Humidity: 91%
Pressure (altimeter): 30.04 in. Hg (1017 hPa)
ob: KASX 181053Z AUTO 00000KT 10SM CLR M11/M12 A3004 RMK AO2 SLP189 T11061117
cycle: 11

Station Type Date Time Source
KASX TAF UTC NOAA

Error!


Example: see airport list